createdAt,value
2022-08-21T00:02:50.605Z,18.62
2022-08-21T00:07:43.236Z,18.57
2022-08-21T00:12:33.256Z,18.55
2022-08-21T00:17:23.849Z,18.53
2022-08-21T00:22:15.452Z,18.50
2022-08-21T00:27:09.274Z,18.42
2022-08-21T00:32:00.299Z,18.43
2022-08-21T00:36:50.933Z,18.38
2022-08-21T00:41:43.015Z,18.37
2022-08-21T00:46:37.730Z,18.31
2022-08-21T00:51:32.540Z,18.28
2022-08-21T00:56:29.888Z,18.20
2022-08-21T01:01:21.382Z,18.14
2022-08-21T01:06:15.378Z,18.16
2022-08-21T01:11:06.854Z,18.11
2022-08-21T01:16:00.943Z,18.07
2022-08-21T01:21:15.264Z,18.03
2022-08-21T01:26:10.000Z,17.98
2022-08-21T01:31:05.568Z,17.93
2022-08-21T01:35:56.524Z,17.87
2022-08-21T01:40:51.692Z,17.86
2022-08-21T01:45:44.013Z,17.80
2022-08-21T01:50:34.097Z,17.78
2022-08-21T01:55:25.908Z,17.75
2022-08-21T02:00:24.058Z,17.44
2022-08-21T02:05:16.189Z,17.59
2022-08-21T02:10:07.081Z,17.36
2022-08-21T02:14:57.367Z,17.20
2022-08-21T02:19:49.915Z,17.13
2022-08-21T02:24:55.203Z,17.08
2022-08-21T02:29:45.459Z,16.98
2022-08-21T02:34:35.452Z,16.94
2022-08-21T02:39:27.902Z,16.92
2022-08-21T02:44:17.334Z,16.88
2022-08-21T02:49:06.915Z,16.84
2022-08-21T02:53:56.860Z,16.70
2022-08-21T02:58:52.634Z,16.71
2022-08-21T03:03:47.579Z,16.67
2022-08-21T03:08:39.090Z,16.59
2022-08-21T03:13:29.753Z,16.56
2022-08-21T03:18:22.956Z,16.50
2022-08-21T03:23:16.780Z,16.41
2022-08-21T03:28:13.001Z,16.34
2022-08-21T03:33:04.439Z,16.26
2022-08-21T03:37:58.238Z,16.22
2022-08-21T03:42:48.906Z,16.17
2022-08-21T03:47:38.794Z,16.13
2022-08-21T03:52:29.909Z,16.04
2022-08-21T03:57:23.106Z,16.04
2022-08-21T04:02:14.979Z,15.97
2022-08-21T04:07:07.553Z,15.97
2022-08-21T04:11:58.651Z,15.93
2022-08-21T04:16:53.169Z,15.90
2022-08-21T04:21:44.729Z,15.80
2022-08-21T04:26:37.330Z,15.84
2022-08-21T04:31:29.766Z,15.82
2022-08-21T04:36:24.514Z,15.83
2022-08-21T04:41:15.681Z,15.81
2022-08-21T04:46:06.754Z,15.82
2022-08-21T04:51:00.833Z,15.81
2022-08-21T04:55:58.460Z,15.82
2022-08-21T05:00:50.150Z,15.83
2022-08-21T05:05:41.260Z,15.83
2022-08-21T05:10:32.585Z,15.84
2022-08-21T05:15:26.193Z,15.84
2022-08-21T05:20:18.022Z,15.83
2022-08-21T05:25:10.865Z,15.85
2022-08-21T05:30:01.287Z,15.85
2022-08-21T05:34:54.765Z,15.89
2022-08-21T05:40:05.186Z,15.92
2022-08-21T05:44:57.116Z,15.97
2022-08-21T05:49:50.452Z,15.99
2022-08-21T05:54:46.971Z,16.01
2022-08-21T05:59:38.241Z,16.08
2022-08-21T06:04:31.226Z,16.11
2022-08-21T06:09:22.307Z,16.07
2022-08-21T06:14:20.757Z,16.19
2022-08-21T06:19:14.381Z,16.25
2022-08-21T06:24:06.601Z,16.28
2022-08-21T06:28:58.185Z,16.34
2022-08-21T06:33:52.497Z,16.39
2022-08-21T06:38:50.847Z,16.43
2022-08-21T06:43:42.584Z,16.53
2022-08-21T06:48:35.807Z,16.61
2022-08-21T06:53:32.301Z,16.90
2022-08-21T06:58:23.003Z,16.78
2022-08-21T07:03:21.822Z,17.02
2022-08-21T07:08:13.176Z,17.09
2022-08-21T07:13:06.660Z,17.22
2022-08-21T07:17:58.118Z,17.31
2022-08-21T07:22:48.287Z,17.35
2022-08-21T07:27:38.324Z,17.43
2022-08-21T07:32:32.166Z,17.56
2022-08-21T07:37:23.590Z,17.65
2022-08-21T07:42:14.160Z,17.79
2022-08-21T08:35:26.564Z,19.27
2022-08-21T08:40:26.520Z,19.55
2022-08-21T08:45:23.047Z,19.98
2022-08-21T08:50:19.715Z,20.10
2022-08-21T08:55:17.303Z,20.17
2022-08-21T09:00:11.817Z,20.14
2022-08-21T09:05:04.220Z,20.20
2022-08-21T09:10:07.287Z,20.39
2022-08-21T09:15:09.162Z,20.67
2022-08-21T09:20:18.373Z,21.11
2022-08-21T09:25:17.535Z,21.71
2022-08-21T09:30:11.965Z,21.91
2022-08-21T09:35:04.385Z,21.60
2022-08-21T09:39:54.215Z,21.83
2022-08-21T09:44:45.762Z,21.83
2022-08-21T09:49:40.987Z,21.93
2022-08-21T09:54:35.027Z,22.41
2022-08-21T09:59:36.383Z,22.94
2022-08-21T10:04:33.205Z,23.36
2022-08-21T10:09:25.845Z,23.57
2022-08-21T10:14:24.551Z,23.87
2022-08-21T10:19:23.580Z,24.40
2022-08-21T10:24:31.367Z,24.32
2022-08-21T10:29:41.867Z,24.48
2022-08-21T10:34:46.487Z,23.88
2022-08-21T10:39:38.651Z,23.88
2022-08-21T10:44:40.075Z,24.48
2022-08-21T10:49:36.382Z,24.96
2022-08-21T10:54:38.141Z,25.28
2022-08-21T10:59:38.970Z,25.31
2022-08-21T11:04:48.919Z,25.36
2022-08-21T11:09:55.717Z,25.01
2022-08-21T11:14:59.244Z,24.99
2022-08-21T11:19:55.176Z,25.00
2022-08-21T11:24:54.785Z,24.85
2022-08-21T11:29:48.267Z,24.65
2022-08-21T11:34:59.039Z,24.42
2022-08-21T11:39:54.421Z,24.42
2022-08-21T11:44:49.886Z,24.32
2022-08-21T11:49:56.849Z,24.23
2022-08-21T11:54:48.428Z,24.07
2022-08-21T11:59:40.973Z,24.10
2022-08-21T12:04:31.917Z,24.01
2022-08-21T12:09:38.396Z,24.14
2022-08-21T12:14:27.828Z,24.33
2022-08-21T12:19:18.294Z,24.31
2022-08-21T12:24:19.283Z,23.87
2022-08-21T12:29:15.307Z,23.55
2022-08-21T12:34:08.219Z,23.70
2022-08-21T12:38:59.979Z,23.86
2022-08-21T12:43:51.637Z,24.04
2022-08-21T12:48:50.834Z,24.16
2022-08-21T12:53:44.529Z,24.31
2022-08-21T12:58:35.098Z,24.39
2022-08-21T13:03:25.423Z,24.28
2022-08-21T13:08:17.709Z,23.99
2022-08-21T13:13:12.682Z,23.92
2022-08-21T13:18:03.817Z,24.07
2022-08-21T13:22:56.353Z,24.32
2022-08-21T13:28:02.322Z,24.47
2022-08-21T13:32:54.259Z,24.53
2022-08-21T13:37:44.567Z,24.61
2022-08-21T13:42:36.244Z,24.63
2022-08-21T13:47:28.404Z,24.42
2022-08-21T13:52:21.388Z,24.20
2022-08-21T13:57:19.451Z,23.97
2022-08-21T14:02:14.721Z,23.83
2022-08-21T14:07:19.072Z,23.69
2022-08-21T14:12:23.537Z,23.55
2022-08-21T14:17:24.300Z,23.36
2022-08-21T14:22:33.656Z,23.37
2022-08-21T14:27:26.905Z,23.34
2022-08-21T14:32:24.459Z,23.37
2022-08-21T14:37:15.525Z,23.43
2022-08-21T14:42:07.920Z,23.53
2022-08-21T14:46:58.814Z,23.72
2022-08-21T14:51:54.718Z,23.94
2022-08-21T14:56:44.392Z,24.12
2022-08-21T15:01:38.155Z,24.18
2022-08-21T15:06:27.864Z,24.17
2022-08-21T15:11:42.723Z,24.10
2022-08-21T15:16:31.257Z,24.05
2022-08-21T15:21:23.263Z,23.99
2022-08-21T15:26:14.982Z,23.87
2022-08-21T15:31:04.763Z,23.75
2022-08-21T15:35:54.187Z,23.64
2022-08-21T15:40:52.048Z,23.55
2022-08-21T15:45:42.010Z,23.57
2022-08-21T15:50:33.115Z,23.47
2022-08-21T15:55:22.747Z,23.34
2022-08-21T16:00:19.052Z,23.26
2022-08-21T16:05:11.388Z,23.19
2022-08-21T16:10:04.373Z,23.10
2022-08-21T16:14:54.739Z,23.05
2022-08-21T16:19:47.304Z,22.99
2022-08-21T16:24:37.028Z,22.96
2022-08-21T16:29:26.753Z,22.87
2022-08-21T16:34:19.266Z,22.83
2022-08-21T16:39:12.375Z,22.75
2022-08-21T16:44:01.950Z,22.73
2022-08-21T16:48:51.489Z,22.73
2022-08-21T16:53:41.087Z,22.66
2022-08-21T16:58:34.316Z,22.58
2022-08-21T17:03:28.901Z,22.46
2022-08-21T17:08:18.494Z,22.38
2022-08-21T17:13:09.809Z,22.30
2022-08-21T17:18:02.365Z,22.24
2022-08-21T17:22:52.033Z,22.21
2022-08-21T17:27:44.049Z,22.18
2022-08-21T17:32:33.966Z,22.20
2022-08-21T17:37:29.182Z,22.16
2022-08-21T17:42:19.425Z,22.16
2022-08-21T17:47:10.288Z,22.15
2022-08-21T17:52:00.290Z,22.10
2022-08-21T17:56:53.933Z,22.03
2022-08-21T18:01:46.901Z,21.97
2022-08-21T18:06:36.424Z,21.93
2022-08-21T18:11:27.231Z,21.91
2022-08-21T18:16:19.958Z,21.95
2022-08-21T18:21:10.438Z,21.91
2022-08-21T18:26:01.169Z,21.88
2022-08-21T18:30:52.135Z,21.83
2022-08-21T18:35:44.714Z,21.79
2022-08-21T18:40:36.022Z,21.77
2022-08-21T18:45:25.940Z,21.74
2022-08-21T18:50:22.111Z,21.73
2022-08-21T18:55:18.243Z,21.72
2022-08-21T19:00:13.849Z,21.72
2022-08-21T19:05:05.335Z,21.67
2022-08-21T19:10:24.331Z,21.62
2022-08-21T19:15:09.466Z,21.60
2022-08-21T19:20:02.009Z,21.55
2022-08-21T19:24:57.739Z,21.53
2022-08-21T19:29:53.855Z,21.51
2022-08-21T19:34:45.967Z,21.58
2022-08-21T19:39:43.576Z,21.48
2022-08-21T19:44:39.551Z,21.41
2022-08-21T19:49:33.312Z,21.30
2022-08-21T19:54:27.186Z,21.19
2022-08-21T19:59:17.831Z,21.14
2022-08-21T20:04:11.770Z,21.12
2022-08-21T20:09:10.097Z,21.15
2022-08-21T20:14:02.819Z,21.16
2022-08-21T20:18:52.366Z,21.10
2022-08-21T20:23:49.172Z,21.04
2022-08-21T20:28:45.330Z,21.05
2022-08-21T20:33:39.317Z,21.03
2022-08-21T20:38:29.066Z,20.96
2022-08-21T20:43:18.989Z,20.97
2022-08-21T20:48:14.535Z,20.94
2022-08-21T20:53:10.624Z,20.88
2022-08-21T20:58:03.355Z,20.92
2022-08-21T21:02:56.382Z,20.84
2022-08-21T21:08:03.406Z,20.68
2022-08-21T21:12:58.513Z,20.60
2022-08-21T21:17:50.372Z,20.57
2022-08-21T21:22:41.544Z,20.53
2022-08-21T21:27:36.031Z,20.49
2022-08-21T21:32:28.443Z,20.51
2022-08-21T21:37:25.562Z,20.44
2022-08-21T21:47:41.775Z,20.44
2022-08-21T21:52:40.049Z,20.40
2022-08-21T21:57:45.111Z,20.39
2022-08-21T22:02:46.278Z,20.42
2022-08-21T22:12:57.241Z,20.44
2022-08-21T22:18:06.874Z,20.43
2022-08-21T22:23:00.694Z,20.37
2022-08-21T22:27:52.955Z,20.36
2022-08-21T22:32:45.787Z,20.37
2022-08-21T22:37:42.002Z,20.36
2022-08-21T22:42:33.699Z,20.34
2022-08-21T22:47:25.812Z,20.34
2022-08-21T22:52:24.422Z,20.34
2022-08-21T22:57:28.681Z,20.31
2022-08-21T23:02:24.981Z,20.28
2022-08-21T23:07:14.763Z,20.27
2022-08-21T23:12:21.196Z,20.25
2022-08-21T23:17:15.995Z,20.23
2022-08-21T23:22:13.032Z,20.14
2022-08-21T23:27:11.188Z,20.10
2022-08-21T23:32:04.232Z,20.11
2022-08-21T23:37:15.277Z,20.07
2022-08-21T23:42:08.859Z,20.07
2022-08-21T23:47:06.194Z,20.04
2022-08-21T23:52:10.495Z,20.02
2022-08-21T23:57:08.240Z,19.97
